createdAt,value
2023-08-10T00:01:31.428Z,0.80
2023-08-10T00:04:02.034Z,1.38
2023-08-10T00:06:32.493Z,1.30
2023-08-10T00:09:03.880Z,2.50
2023-08-10T00:11:34.276Z,1.10
2023-08-10T00:14:07.789Z,1.50
2023-08-10T00:16:38.209Z,1.45
2023-08-10T00:19:09.009Z,0.73
2023-08-10T00:21:39.408Z,1.85
2023-08-10T00:24:10.041Z,1.42
2023-08-10T00:26:40.504Z,0.85
2023-08-10T00:29:13.669Z,0.82
2023-08-10T00:31:44.066Z,0.90
2023-08-10T00:34:14.491Z,0.95
2023-08-10T00:36:44.867Z,0.98
2023-08-10T00:39:15.290Z,0.93
2023-08-10T00:41:45.693Z,0.80
2023-08-10T00:44:18.915Z,1.13
2023-08-10T00:46:50.956Z,0.90
2023-08-10T00:49:21.450Z,1.10
2023-08-10T00:51:51.894Z,1.08
2023-08-10T00:54:22.443Z,1.10
2023-08-10T00:56:52.932Z,0.90
2023-08-10T00:59:25.981Z,0.98
2023-08-10T01:01:56.799Z,0.80
2023-08-10T01:04:27.316Z,1.02
2023-08-10T01:07:01.295Z,0.90
2023-08-10T01:09:35.604Z,0.80
2023-08-10T01:12:08.839Z,0.82
2023-08-10T01:14:45.465Z,0.82
2023-08-10T01:17:19.733Z,1.23
2023-08-10T01:19:51.712Z,1.10
2023-08-10T01:22:25.094Z,0.90
2023-08-10T01:25:04.656Z,0.68
2023-08-10T01:27:36.038Z,1.17
2023-08-10T01:30:09.186Z,0.70
2023-08-10T01:32:39.622Z,1.15
2023-08-10T01:35:11.738Z,1.02
2023-08-10T01:37:42.341Z,1.10
2023-08-10T01:40:17.483Z,1.30
2023-08-10T01:42:48.584Z,0.73
2023-08-10T01:45:19.945Z,0.98
2023-08-10T01:47:53.531Z,0.82
2023-08-10T01:50:25.019Z,1.35
2023-08-10T01:52:56.854Z,0.82
2023-08-10T01:55:30.032Z,1.33
2023-08-10T01:58:00.640Z,1.30
2023-08-10T02:00:31.830Z,1.02
2023-08-10T02:03:02.644Z,0.85
2023-08-10T02:05:33.097Z,2.03
2023-08-10T02:08:03.484Z,0.77
2023-08-10T02:10:36.484Z,1.10
2023-08-10T02:13:06.934Z,0.90
2023-08-10T02:15:37.406Z,0.85
2023-08-10T02:18:08.212Z,0.70
2023-08-10T02:23:08.967Z,1.08
2023-08-10T02:25:42.184Z,0.93
2023-08-10T02:28:12.551Z,1.20
2023-08-10T02:30:43.154Z,0.93
2023-08-10T02:33:13.659Z,1.50
2023-08-10T02:35:44.191Z,1.08
2023-08-10T02:38:14.555Z,1.10
2023-08-10T02:40:47.623Z,1.00
2023-08-10T02:43:18.000Z,1.10
2023-08-10T02:45:48.545Z,0.90
2023-08-10T02:48:18.950Z,0.77
2023-08-10T02:50:49.414Z,1.23
2023-08-10T02:53:19.810Z,1.38
2023-08-10T02:55:52.857Z,1.20
2023-08-10T02:58:25.366Z,1.27
2023-08-10T03:00:56.208Z,1.13
2023-08-10T03:05:57.787Z,0.70
2023-08-10T03:08:28.193Z,0.95
2023-08-10T03:11:01.386Z,2.33
2023-08-10T03:13:31.775Z,1.58
2023-08-10T03:16:02.260Z,1.90
2023-08-10T03:18:32.757Z,1.45
2023-08-10T03:21:03.294Z,1.10
2023-08-10T03:23:33.705Z,1.10
2023-08-10T03:26:06.926Z,1.00
2023-08-10T03:28:37.308Z,1.10
2023-08-10T03:31:07.883Z,1.25
2023-08-10T03:33:38.333Z,0.95
2023-08-10T03:36:09.130Z,1.52
2023-08-10T03:38:39.532Z,1.00
2023-08-10T03:41:12.761Z,1.40
2023-08-10T03:43:43.147Z,1.10
2023-08-10T03:46:13.738Z,1.40
2023-08-10T03:48:44.133Z,1.25
2023-08-10T03:51:14.779Z,1.38
2023-08-10T03:53:45.166Z,1.13
2023-08-10T03:56:18.662Z,1.23
2023-08-10T03:58:49.159Z,1.65
2023-08-10T04:01:19.609Z,1.35
2023-08-10T04:03:50.098Z,1.40
2023-08-10T04:06:20.600Z,1.38
2023-08-10T04:08:51.259Z,2.55
2023-08-10T04:11:24.568Z,1.48
2023-08-10T04:13:54.952Z,1.42
2023-08-10T04:16:25.567Z,2.22
2023-08-10T04:18:56.525Z,2.47
2023-08-10T04:21:27.147Z,1.20
2023-08-10T04:23:57.638Z,1.65
2023-08-10T04:26:31.951Z,1.23
2023-08-10T04:29:02.345Z,1.45
2023-08-10T04:31:32.776Z,1.45
2023-08-10T04:34:03.155Z,1.90
2023-08-10T04:36:34.788Z,1.20
2023-08-10T04:39:05.860Z,2.05
2023-08-10T04:41:39.271Z,1.98
2023-08-10T04:44:10.236Z,1.88
2023-08-10T04:46:40.852Z,1.77
2023-08-10T04:49:11.933Z,1.60
2023-08-10T04:51:42.361Z,1.58
2023-08-10T04:54:13.804Z,1.98
2023-08-10T04:56:47.591Z,2.58
2023-08-10T04:59:18.115Z,1.83
2023-08-10T05:01:49.268Z,2.47
2023-08-10T05:04:19.710Z,2.17
2023-08-10T05:06:50.195Z,1.80
2023-08-10T05:09:20.605Z,2.25
2023-08-10T05:11:53.856Z,4.10
2023-08-10T05:14:24.231Z,2.33
2023-08-10T05:16:55.212Z,2.33
2023-08-10T05:19:25.717Z,2.30
2023-08-10T05:21:56.152Z,2.33
2023-08-10T05:24:26.592Z,1.98
2023-08-10T05:26:59.634Z,2.35
2023-08-10T05:29:30.170Z,2.10
2023-08-10T05:32:00.926Z,2.30
2023-08-10T05:34:31.418Z,2.65
2023-08-10T05:37:02.137Z,2.63
2023-08-10T05:39:32.728Z,2.42
2023-08-10T05:42:06.181Z,3.70
2023-08-10T05:44:36.818Z,2.60
2023-08-10T05:47:07.942Z,2.65
2023-08-10T05:49:38.329Z,2.70
2023-08-10T05:52:09.749Z,2.25
2023-08-10T05:54:40.354Z,2.70
2023-08-10T05:57:13.666Z,2.00
2023-08-10T05:59:44.049Z,2.47
2023-08-10T06:02:14.591Z,2.72
2023-08-10T06:04:46.400Z,2.25
2023-08-10T06:07:16.816Z,2.40
2023-08-10T06:09:47.258Z,2.30
2023-08-10T06:12:20.489Z,2.20
2023-08-10T06:14:50.869Z,2.70
2023-08-10T06:17:21.379Z,3.35
2023-08-10T06:19:56.003Z,1.92
2023-08-10T06:22:28.561Z,2.55
2023-08-10T06:24:59.498Z,1.77
2023-08-10T06:27:32.571Z,1.92
2023-08-10T06:30:02.936Z,2.08
2023-08-10T06:32:33.431Z,2.08
2023-08-10T06:35:05.322Z,2.15
2023-08-10T06:37:36.481Z,1.70
2023-08-10T06:40:09.935Z,2.05
2023-08-10T06:42:43.092Z,3.15
2023-08-10T06:45:13.819Z,2.38
2023-08-10T06:50:15.476Z,1.38
2023-08-10T06:52:46.539Z,1.30
2023-08-10T06:55:16.938Z,1.17
2023-08-10T06:57:50.672Z,1.20
2023-08-10T07:03:00.236Z,1.15
2023-08-10T07:05:31.065Z,1.27
2023-08-10T07:08:01.497Z,0.93
2023-08-10T07:10:32.332Z,1.55
2023-08-10T07:13:05.438Z,0.98
2023-08-10T07:15:38.492Z,1.33
2023-08-10T07:18:09.400Z,1.08
2023-08-10T07:20:40.407Z,1.17
2023-08-10T07:23:12.727Z,1.15
2023-08-10T07:25:43.237Z,2.05
2023-08-10T07:28:16.417Z,1.00
2023-08-10T07:30:49.982Z,0.90
2023-08-10T07:33:20.709Z,0.70
2023-08-10T07:35:51.156Z,0.77
2023-08-10T07:38:21.559Z,0.98
2023-08-10T07:40:52.026Z,0.85
2023-08-10T07:43:25.196Z,1.50
2023-08-10T07:45:55.830Z,0.60
2023-08-10T07:48:26.225Z,0.55
2023-08-10T07:50:56.754Z,0.90
2023-08-10T07:56:00.691Z,0.85
2023-08-10T07:58:33.846Z,0.88
2023-08-10T08:01:04.222Z,1.15
2023-08-10T08:03:34.742Z,0.82
2023-08-10T08:06:05.300Z,0.75
2023-08-10T08:13:38.760Z,0.75
2023-08-10T08:16:09.202Z,0.93
2023-08-10T08:21:09.839Z,0.88
2023-08-10T08:28:43.215Z,1.17
2023-08-10T08:31:13.715Z,0.80
2023-08-10T08:33:44.729Z,0.57
2023-08-10T08:36:15.206Z,0.70
2023-08-10T08:38:47.125Z,0.90
2023-08-10T08:41:20.901Z,0.80
2023-08-10T08:43:54.073Z,1.30
2023-08-10T08:46:27.151Z,0.77
2023-08-10T08:48:57.621Z,0.90
2023-08-10T08:51:28.105Z,1.05
2023-08-10T08:54:01.694Z,0.95
2023-08-10T08:56:33.032Z,1.02
2023-08-10T08:59:06.464Z,0.60
2023-08-10T09:01:38.331Z,1.13
2023-08-10T09:04:09.365Z,1.20
2023-08-10T09:06:39.823Z,0.98
2023-08-10T09:09:10.385Z,0.85
2023-08-10T09:11:40.761Z,0.95
2023-08-10T09:14:14.800Z,1.05
2023-08-10T09:16:46.991Z,1.08
2023-08-10T09:19:17.698Z,1.00
2023-08-10T09:21:50.827Z,1.15
2023-08-10T09:24:21.260Z,1.02
2023-08-10T09:26:51.724Z,0.90
2023-08-10T09:29:35.314Z,2.03
2023-08-10T09:32:05.973Z,1.15
2023-08-10T09:34:36.658Z,2.63
2023-08-10T09:37:07.140Z,1.10
2023-08-10T09:39:37.608Z,2.22
2023-08-10T09:42:08.178Z,0.93
2023-08-10T09:44:51.440Z,1.52
2023-08-10T09:47:22.178Z,0.80
2023-08-10T09:50:02.447Z,1.05
2023-08-10T09:52:33.168Z,1.33
2023-08-10T09:55:03.914Z,1.50
2023-08-10T09:57:35.752Z,0.70
2023-08-10T10:00:15.043Z,0.65
2023-08-10T10:02:45.791Z,1.00
2023-08-10T10:05:35.460Z,1.05
2023-08-10T10:08:07.717Z,0.85
2023-08-10T10:10:39.568Z,1.00
2023-08-10T10:13:11.661Z,0.70
2023-08-10T10:15:46.213Z,0.90
2023-08-10T10:18:16.888Z,1.10
2023-08-10T10:20:49.166Z,1.02
2023-08-10T10:23:20.041Z,0.70
2023-08-10T10:26:01.422Z,1.00
2023-08-10T10:28:33.077Z,1.15
2023-08-10T10:31:16.155Z,0.68
2023-08-10T10:33:59.147Z,1.13
2023-08-10T10:36:29.618Z,1.08
2023-08-10T10:39:01.992Z,0.98
2023-08-10T10:41:33.751Z,1.02
2023-08-10T10:44:04.588Z,1.25
2023-08-10T10:46:44.945Z,0.98
2023-08-10T10:49:19.749Z,1.08
2023-08-10T10:51:56.532Z,2.55
2023-08-10T10:54:29.267Z,1.00
2023-08-10T10:57:00.190Z,1.00
2023-08-10T10:59:30.621Z,0.95
2023-08-10T11:02:04.750Z,2.17
2023-08-10T11:04:35.546Z,1.13
2023-08-10T11:07:06.107Z,1.15
2023-08-10T11:09:36.513Z,1.20
2023-08-10T11:12:08.043Z,0.80
2023-08-10T11:14:38.669Z,0.82
2023-08-10T11:17:12.930Z,1.33
2023-08-10T11:19:43.310Z,0.77
2023-08-10T11:22:13.872Z,0.85
2023-08-10T11:24:46.638Z,1.30
2023-08-10T11:27:17.850Z,1.05
2023-08-10T11:29:48.336Z,1.20
2023-08-10T11:32:22.354Z,1.88
2023-08-10T11:34:54.978Z,0.77
2023-08-10T11:37:32.723Z,0.73
2023-08-10T11:40:12.168Z,0.70
2023-08-10T11:42:43.022Z,2.00
2023-08-10T11:45:18.349Z,0.70
2023-08-10T11:48:03.239Z,0.65
2023-08-10T11:50:35.218Z,0.68
2023-08-10T11:53:16.559Z,0.70
2023-08-10T11:55:47.809Z,0.80
2023-08-10T11:58:18.854Z,0.75
2023-08-10T12:00:53.068Z,0.85
2023-08-10T12:03:35.817Z,0.70
2023-08-10T12:06:08.734Z,1.00
2023-08-10T12:08:41.281Z,0.98
2023-08-10T12:11:15.771Z,1.00
2023-08-10T12:13:50.738Z,1.70
2023-08-10T12:16:21.861Z,1.13
2023-08-10T12:18:55.148Z,0.52
2023-08-10T12:21:25.612Z,0.90
2023-08-10T12:23:56.812Z,0.77
2023-08-10T12:26:27.365Z,0.82
2023-08-10T12:28:57.976Z,1.20
2023-08-10T12:31:29.174Z,0.85
2023-08-10T12:34:02.467Z,0.98
2023-08-10T12:36:32.906Z,0.85
2023-08-10T12:39:03.432Z,0.85
2023-08-10T12:41:33.914Z,0.52
2023-08-10T12:44:04.385Z,0.80
2023-08-10T12:46:34.944Z,0.80
2023-08-10T12:49:08.224Z,0.90
2023-08-10T12:51:38.787Z,1.08
2023-08-10T12:54:09.635Z,0.70
2023-08-10T12:56:40.030Z,0.88
2023-08-10T12:59:10.561Z,0.80
2023-08-10T13:01:40.958Z,1.20
2023-08-10T13:04:14.072Z,1.10
2023-08-10T13:06:44.439Z,1.63
2023-08-10T13:09:14.884Z,0.95
2023-08-10T13:11:45.364Z,1.10
2023-08-10T13:14:15.884Z,1.00
2023-08-10T13:16:46.404Z,0.98
2023-08-10T13:19:20.338Z,0.75
2023-08-10T13:21:53.133Z,1.25
2023-08-10T13:24:23.722Z,1.10
2023-08-10T13:26:55.176Z,1.00
2023-08-10T13:29:25.720Z,2.13
2023-08-10T13:31:56.181Z,0.90
2023-08-10T13:34:29.230Z,0.77
2023-08-10T13:36:59.665Z,0.80
2023-08-10T13:39:30.695Z,1.55
2023-08-10T13:42:01.102Z,1.42
2023-08-10T13:44:31.712Z,0.80
2023-08-10T13:47:02.540Z,0.68
2023-08-10T13:49:53.009Z,0.70
2023-08-10T13:52:27.022Z,1.85
2023-08-10T13:54:58.062Z,0.80
2023-08-10T13:57:28.568Z,0.88
2023-08-10T13:59:59.022Z,1.60
2023-08-10T14:02:29.798Z,0.95
2023-08-10T14:05:03.722Z,0.90
2023-08-10T14:07:34.154Z,1.05
2023-08-10T14:10:04.664Z,1.15
2023-08-10T14:12:35.214Z,0.82
2023-08-10T14:15:05.672Z,0.68
2023-08-10T14:17:36.625Z,0.77
2023-08-10T14:20:12.188Z,2.20
2023-08-10T14:22:42.649Z,0.88
2023-08-10T14:25:13.796Z,0.80
2023-08-10T14:27:44.701Z,0.88
2023-08-10T14:30:15.632Z,0.80
2023-08-10T14:32:46.141Z,0.77
2023-08-10T14:35:19.321Z,1.98
2023-08-10T14:37:49.731Z,0.70
2023-08-10T14:40:20.843Z,0.70
2023-08-10T14:42:51.319Z,0.68
2023-08-10T14:45:21.779Z,0.95
2023-08-10T14:48:10.204Z,0.55
2023-08-10T14:50:45.747Z,1.13
2023-08-10T14:53:16.152Z,0.88
2023-08-10T14:55:46.734Z,0.68
2023-08-10T14:58:17.115Z,1.05
2023-08-10T15:00:48.287Z,1.08
2023-08-10T15:03:20.035Z,1.00
2023-08-10T15:05:53.161Z,1.48
2023-08-10T15:08:24.075Z,1.20
2023-08-10T15:10:56.126Z,1.40
2023-08-10T15:13:26.591Z,1.10
2023-08-10T15:15:57.161Z,1.30
2023-08-10T15:18:27.649Z,0.73
2023-08-10T15:21:01.154Z,0.73
2023-08-10T15:23:42.590Z,1.05
2023-08-10T15:26:13.876Z,0.95
2023-08-10T15:28:44.971Z,1.25
2023-08-10T15:31:16.027Z,1.20
2023-08-10T15:33:47.261Z,2.25
2023-08-10T15:36:20.369Z,0.98
2023-08-10T15:38:50.759Z,1.52
2023-08-10T15:41:21.216Z,2.05
2023-08-10T15:43:51.595Z,0.65
2023-08-10T15:46:23.783Z,0.80
2023-08-10T15:48:54.279Z,0.90
2023-08-10T15:51:27.487Z,1.10
2023-08-10T15:53:58.441Z,0.95
2023-08-10T15:56:28.898Z,0.77
2023-08-10T15:58:59.246Z,0.93
2023-08-10T16:01:31.937Z,1.00
2023-08-10T16:04:03.065Z,0.82
2023-08-10T16:06:36.939Z,0.80
2023-08-10T16:09:07.585Z,1.00
2023-08-10T16:11:38.028Z,0.88
2023-08-10T16:14:08.726Z,0.95
2023-08-10T16:16:39.193Z,0.80
2023-08-10T16:19:09.855Z,1.00
2023-08-10T16:21:42.958Z,0.77
2023-08-10T16:24:13.574Z,0.90
2023-08-10T16:26:44.066Z,0.70
2023-08-10T16:29:14.494Z,1.73
2023-08-10T16:31:45.130Z,0.90
2023-08-10T16:34:15.724Z,0.93
2023-08-10T16:36:48.836Z,1.80
2023-08-10T16:39:19.256Z,0.93
2023-08-10T16:41:49.721Z,0.98
2023-08-10T16:44:21.273Z,1.00
2023-08-10T16:46:51.681Z,1.25
2023-08-10T16:49:22.108Z,1.00
2023-08-10T16:51:55.149Z,0.90
2023-08-10T16:54:25.675Z,1.52
2023-08-10T16:56:56.111Z,0.70
2023-08-10T16:59:26.558Z,1.75
2023-08-10T17:01:57.253Z,1.08
2023-08-10T17:04:27.836Z,0.85
2023-08-10T17:07:01.115Z,1.00
2023-08-10T17:09:31.723Z,0.88
2023-08-10T17:12:02.241Z,1.15
2023-08-10T17:14:32.649Z,1.83
2023-08-10T17:17:03.564Z,1.10
2023-08-10T17:19:34.016Z,0.60
2023-08-10T17:22:08.719Z,0.80
2023-08-10T17:24:39.732Z,1.30
2023-08-10T17:27:10.205Z,1.33
2023-08-10T17:29:40.612Z,0.70
2023-08-10T17:32:11.065Z,0.93
2023-08-10T17:34:41.519Z,1.25
2023-08-10T17:37:14.749Z,0.85
2023-08-10T17:39:45.204Z,0.77
2023-08-10T17:42:15.826Z,1.00
2023-08-10T17:44:46.612Z,0.98
2023-08-10T17:47:17.724Z,0.77
2023-08-10T17:49:48.155Z,1.25
2023-08-10T17:52:22.564Z,1.20
2023-08-10T17:54:52.990Z,0.52
2023-08-10T17:57:23.469Z,0.73
2023-08-10T17:59:54.494Z,0.80
2023-08-10T18:02:25.289Z,0.95
2023-08-10T18:04:56.227Z,1.00
2023-08-10T18:07:29.702Z,0.77
2023-08-10T18:10:00.679Z,1.17
2023-08-10T18:12:31.485Z,0.65
2023-08-10T18:15:02.015Z,0.93
2023-08-10T18:17:33.628Z,0.70
2023-08-10T18:20:05.352Z,0.75
2023-08-10T18:22:38.463Z,1.08
2023-08-10T18:25:09.519Z,0.88
2023-08-10T18:27:40.102Z,1.10
2023-08-10T18:30:14.296Z,0.90
2023-08-10T18:32:46.205Z,0.60
2023-08-10T18:35:16.712Z,0.90
2023-08-10T18:37:49.788Z,1.00
2023-08-10T18:40:20.228Z,1.23
2023-08-10T18:42:51.822Z,0.88
2023-08-10T18:45:22.250Z,2.55
2023-08-10T18:47:52.707Z,1.58
2023-08-10T18:50:23.192Z,0.80
2023-08-10T18:52:56.633Z,0.95
2023-08-10T18:55:27.187Z,0.95
2023-08-10T18:57:57.771Z,0.70
2023-08-10T19:00:28.233Z,0.85
2023-08-10T19:02:58.716Z,0.77
2023-08-10T19:05:30.719Z,0.77
2023-08-10T19:08:03.799Z,1.23
2023-08-10T19:10:34.219Z,1.00
2023-08-10T19:15:34.982Z,0.82
2023-08-10T19:18:05.557Z,1.02
2023-08-10T19:20:37.437Z,1.02
2023-08-10T19:23:10.615Z,2.15
2023-08-10T19:25:41.255Z,0.93
2023-08-10T19:28:11.959Z,0.80
2023-08-10T19:30:42.510Z,0.90
2023-08-10T19:33:13.067Z,1.00
2023-08-10T19:35:43.584Z,1.10
2023-08-10T19:38:17.071Z,1.77
2023-08-10T19:40:47.540Z,2.35
2023-08-10T19:45:48.123Z,1.55
2023-08-10T19:50:50.401Z,1.45
2023-08-10T19:53:23.677Z,1.92
2023-08-10T19:55:54.065Z,3.20
2023-08-10T19:58:25.558Z,5.53
2023-08-10T20:00:56.041Z,2.13
2023-08-10T20:05:59.422Z,1.83
2023-08-10T20:08:32.483Z,1.60
2023-08-10T20:11:03.167Z,1.70
2023-08-10T20:13:33.617Z,1.83
2023-08-10T20:16:06.838Z,1.75
2023-08-10T20:18:39.229Z,2.15
2023-08-10T20:21:11.561Z,2.10
2023-08-10T20:23:46.249Z,1.88
2023-08-10T20:26:17.294Z,3.30
2023-08-10T20:28:48.246Z,2.80
2023-08-10T20:31:18.675Z,1.33
2023-08-10T20:33:51.951Z,2.63
2023-08-10T20:36:22.582Z,1.42
2023-08-10T20:43:56.367Z,1.75
2023-08-10T20:46:27.414Z,1.35
2023-08-10T20:48:58.916Z,1.85
2023-08-10T20:51:29.348Z,1.65
2023-08-10T20:53:59.813Z,1.85
2023-08-10T20:59:03.205Z,2.78
2023-08-10T21:01:33.656Z,3.00
2023-08-10T21:04:04.131Z,2.05
2023-08-10T21:06:34.578Z,6.20
2023-08-10T21:09:06.740Z,7.35
2023-08-10T21:11:37.229Z,1.88
2023-08-10T21:16:40.587Z,2.10
2023-08-10T21:19:11.052Z,1.90
2023-08-10T21:21:41.733Z,2.03
2023-08-10T21:24:12.315Z,1.98
2023-08-10T21:29:13.460Z,2.03
2023-08-10T21:31:46.460Z,1.77
2023-08-10T21:34:17.000Z,2.20
2023-08-10T21:36:47.391Z,1.75
2023-08-10T21:39:17.893Z,2.60
2023-08-10T21:41:48.333Z,1.73
2023-08-10T21:44:18.805Z,2.22
2023-08-10T21:46:53.407Z,2.47
2023-08-10T21:49:23.856Z,3.33
2023-08-10T21:51:54.376Z,2.05
2023-08-10T21:56:55.091Z,2.10
2023-08-10T21:59:25.809Z,2.45
2023-08-10T22:01:59.055Z,2.42
2023-08-10T22:04:29.614Z,1.95
2023-08-10T22:07:00.012Z,2.13
2023-08-10T22:09:30.491Z,2.80
2023-08-10T22:12:00.849Z,1.63
2023-08-10T22:14:31.308Z,2.97
2023-08-10T22:17:04.324Z,1.75
2023-08-10T22:19:34.864Z,1.83
2023-08-10T22:24:35.710Z,2.38
2023-08-10T22:27:06.113Z,2.13
2023-08-10T22:29:37.864Z,1.98
2023-08-10T22:32:11.139Z,2.45
2023-08-10T22:34:44.434Z,2.40
2023-08-10T22:37:14.870Z,2.35
2023-08-10T22:39:45.315Z,2.45
2023-08-10T22:42:16.273Z,2.47
2023-08-10T22:44:46.707Z,2.20
2023-08-10T22:47:19.799Z,2.42
2023-08-10T22:49:50.409Z,2.10
2023-08-10T22:54:52.041Z,2.55
2023-08-10T22:57:22.496Z,2.33
2023-08-10T22:59:53.061Z,2.53
2023-08-10T23:02:26.118Z,2.00
2023-08-10T23:04:56.741Z,2.50
2023-08-10T23:09:57.872Z,2.00
2023-08-10T23:12:28.315Z,2.58
2023-08-10T23:14:58.841Z,2.58
2023-08-10T23:17:32.479Z,2.58
2023-08-10T23:20:12.706Z,2.42
2023-08-10T23:22:43.670Z,2.45
2023-08-10T23:25:15.285Z,2.60
2023-08-10T23:27:46.218Z,3.97
2023-08-10T23:30:17.169Z,3.75
2023-08-10T23:32:50.535Z,4.15
2023-08-10T23:35:21.133Z,2.95
2023-08-10T23:37:51.883Z,2.85
2023-08-10T23:40:23.481Z,2.45
2023-08-10T23:42:54.534Z,2.72
2023-08-10T23:45:25.084Z,2.90
2023-08-10T23:47:58.119Z,2.55
2023-08-10T23:50:28.551Z,4.05
2023-08-10T23:52:59.069Z,3.05
2023-08-10T23:55:29.616Z,3.10
2023-08-10T23:57:59.997Z,4.18
